Données. Loja

Actualisé: dimanche, 5 juillet 2015 16:32 (heure officielle)
Ind. climatologique: 5582A -  Altitude (m): 594
Latitude37° 9' 40'' N - Longitude4° 9' 10'' O -  PositionVoir localisation
MunicipioLoja (Granada) - Ver predicción
Registros - de
Fecha y hora oficial

 

Temp. (°C)

 

Vit. vent (km/h)

 

Dir. vent

 

Rafale (km/h)

 

Dir. rafale

 

Prec. (mm)

 

Pression (hPa)

 

Tend. (hPa)

 

Humidité (%)

 

05/07/2015 16:00 37.4 9 2-NordNord 28 2-NordNord 0.0 947.9 -0.8 27
05/07/2015 15:00 36.5 14 2-NordNord 27 9-Nord-OuestNord-Ouest 0.0 948.0 -0.9 28
05/07/2015 14:00 36.1 10 9-Nord-OuestNord-Ouest 23 9-Nord-OuestNord-Ouest 0.0 948.3 -0.8 27
05/07/2015 13:00 34.4 8 9-Nord-OuestNord-Ouest 17 9-Nord-OuestNord-Ouest 0.0 948.7 -0.3 28
05/07/2015 12:00 33.2 4 3-Nord-EstNord-Est 10 2-NordNord 0.0 948.9 -0.3 31
05/07/2015 11:00 30.1 4 3-Nord-EstNord-Est 18 2-NordNord 0.0 949.1 0.1 36
05/07/2015 10:00 26.8 7 3-Nord-EstNord-Est 18 4-EstEst 0.0 949.0 0.0 44
05/07/2015 09:00 23.8 2 3-Nord-EstNord-Est 7 3-Nord-EstNord-Est 0.0 949.2 0.2 51
05/07/2015 08:00 22.4 2 9-Nord-OuestNord-Ouest 6 3-Nord-EstNord-Est 0.0 949.0 0.0 53
05/07/2015 07:00 23.8 4 8-OuestOuest 10 8-OuestOuest 0.0 949.0 -0.2 49
05/07/2015 06:00 24.2 4 7-Sud-OuestSud-Ouest 11 8-OuestOuest 0.0 949.0 -0.4 48
05/07/2015 05:00 24.2 3 6-SudSud 9 9-Nord-OuestNord-Ouest 0.0 949.0 -0.6 46
05/07/2015 04:00 25.7 0 1-CalmeCalme 9 8-OuestOuest 0.0 949.2 -0.6 43
05/07/2015 03:00 26.6 3 8-OuestOuest 10 8-OuestOuest 0.0 949.4 -0.2 41
05/07/2015 02:00 28.3 6 8-OuestOuest 11 8-OuestOuest 0.0 949.6 0.4 40
05/07/2015 01:00 28.6 4 8-OuestOuest 21 8-OuestOuest 0.0 949.8 1.5 39
05/07/2015 00:00 28.7 5 9-Nord-OuestNord-Ouest 16 9-Nord-OuestNord-Ouest 0.0 949.6 1.5 39
04/07/2015 23:00 29.9 12 9-Nord-OuestNord-Ouest 21 8-OuestOuest 0.0 949.2 1.3 37
04/07/2015 22:00 33.2 6 8-OuestOuest 21 8-OuestOuest 0.0 948.3 0.2 32
04/07/2015 21:00 35.0 8 8-OuestOuest 22 9-Nord-OuestNord-Ouest 0.0 948.1 -0.6 30
04/07/2015 20:00 36.6 8 9-Nord-OuestNord-Ouest 20 9-Nord-OuestNord-Ouest 0.0 947.9 -1.4 27
04/07/2015 19:00 37.9 8 2-NordNord 17 9-Nord-OuestNord-Ouest 0.0 948.1 -1.5 26
04/07/2015 18:00 36.9 5 8-OuestOuest 21 8-OuestOuest 0.0 948.7 -1.8 25
04/07/2015 17:00 33.5 3 3-Nord-EstNord-Est 19 6-SudSud 0.0 949.3 -1.4 31
First Page First Page First Page Last Page
Lineas por página
Página   de  
Partager:  
En esta página podrá acceder, en forma gráfica y en tabla, a las observaciones horarias de las últimas 24 horas, así como a los valores extremos y acumulados desde las 00 horas del día hasta la hora de actualización indicada, obtenidos en la red de estaciones de AEMET. También podrá acceder a los resúmenes diarios de estas estaciones en los últimos 7 días.

En el mapa aparecen estaciones con valor númerico y otras representadas por un punto. En las primeras, al pasar el ratón, aparece un desplegable con la información completa de la estación. Las estaciones representadas por un punto son estaciones de la red climatológica, con transmisión de datos superior a la hora, por lo que al seleccionarlas pueden no aparecer los últimos datos.

Los datos presentados han sido únicamente sometidos a controles automáticos de calidad en tiempo real, por lo que no puede garantizarse la ausencia de errores.
Toute utilisation et reproduction de l'information est autorisé sous réserve de mentionner AEMETen tant qu'auteur de celle-ci